sensor_id;sensor_type;location;lat;lon;timestamp;temperature;humidity
3348;DHT22;1687;49.540;8.574;2023-07-22T00:02:23;20.70;56.70
3348;DHT22;1687;49.540;8.574;2023-07-22T00:04:49;20.70;56.70
3348;DHT22;1687;49.540;8.574;2023-07-22T00:07:15;20.80;56.80
3348;DHT22;1687;49.540;8.574;2023-07-22T00:09:42;20.80;56.70
3348;DHT22;1687;49.540;8.574;2023-07-22T00:12:09;20.90;56.70
3348;DHT22;1687;49.540;8.574;2023-07-22T00:14:40;20.80;56.60
3348;DHT22;1687;49.540;8.574;2023-07-22T00:17:06;20.80;56.50
3348;DHT22;1687;49.540;8.574;2023-07-22T00:19:33;20.80;56.50
3348;DHT22;1687;49.540;8.574;2023-07-22T00:21:59;20.70;56.50
3348;DHT22;1687;49.540;8.574;2023-07-22T00:24:25;20.70;56.50
3348;DHT22;1687;49.540;8.574;2023-07-22T00:26:51;20.60;56.50
3348;DHT22;1687;49.540;8.574;2023-07-22T00:29:16;20.60;56.60
3348;DHT22;1687;49.540;8.574;2023-07-22T00:31:42;20.60;56.70
3348;DHT22;1687;49.540;8.574;2023-07-22T00:34:08;20.60;56.70
3348;DHT22;1687;49.540;8.574;2023-07-22T00:36:34;20.60;56.70
3348;DHT22;1687;49.540;8.574;2023-07-22T00:39:00;20.60;56.60
3348;DHT22;1687;49.540;8.574;2023-07-22T00:41:27;20.60;56.70
3348;DHT22;1687;49.540;8.574;2023-07-22T00:43:52;20.60;56.80
3348;DHT22;1687;49.540;8.574;2023-07-22T00:46:18;20.60;56.80
3348;DHT22;1687;49.540;8.574;2023-07-22T00:48:44;20.60;56.80
3348;DHT22;1687;49.540;8.574;2023-07-22T00:51:10;20.50;56.60
3348;DHT22;1687;49.540;8.574;2023-07-22T00:53:36;20.40;56.80
3348;DHT22;1687;49.540;8.574;2023-07-22T00:56:02;20.40;57.00
3348;DHT22;1687;49.540;8.574;2023-07-22T00:58:28;20.30;56.80
3348;DHT22;1687;49.540;8.574;2023-07-22T01:00:54;20.30;57.00
3348;DHT22;1687;49.540;8.574;2023-07-22T01:03:20;20.30;57.20
3348;DHT22;1687;49.540;8.574;2023-07-22T01:05:47;20.30;57.20
3348;DHT22;1687;49.540;8.574;2023-07-22T01:08:13;20.20;57.10
3348;DHT22;1687;49.540;8.574;2023-07-22T01:10:39;20.20;57.30
3348;DHT22;1687;49.540;8.574;2023-07-22T01:13:05;20.20;57.30
3348;DHT22;1687;49.540;8.574;2023-07-22T01:15:31;20.20;57.40
3348;DHT22;1687;49.540;8.574;2023-07-22T01:17:59;20.20;57.50
3348;DHT22;1687;49.540;8.574;2023-07-22T01:20:29;20.10;57.30
3348;DHT22;1687;49.540;8.574;2023-07-22T01:22:55;20.00;57.40
3348;DHT22;1687;49.540;8.574;2023-07-22T01:25:21;19.90;57.60
3348;DHT22;1687;49.540;8.574;2023-07-22T01:27:51;20.00;57.70
3348;DHT22;1687;49.540;8.574;2023-07-22T01:30:17;20.00;57.80
3348;DHT22;1687;49.540;8.574;2023-07-22T01:32:44;20.10;57.80
3348;DHT22;1687;49.540;8.574;2023-07-22T01:35:10;20.10;57.90
3348;DHT22;1687;49.540;8.574;2023-07-22T01:37:36;20.20;58.10
3348;DHT22;1687;49.540;8.574;2023-07-22T01:40:02;20.20;58.00
3348;DHT22;1687;49.540;8.574;2023-07-22T01:42:38;20.20;58.00
3348;DHT22;1687;49.540;8.574;2023-07-22T01:45:05;20.20;58.00
3348;DHT22;1687;49.540;8.574;2023-07-22T01:47:33;20.20;58.10
3348;DHT22;1687;49.540;8.574;2023-07-22T01:50:03;20.30;58.20
3348;DHT22;1687;49.540;8.574;2023-07-22T01:52:29;20.30;58.20
3348;DHT22;1687;49.540;8.574;2023-07-22T01:54:55;20.30;58.30
3348;DHT22;1687;49.540;8.574;2023-07-22T01:57:21;20.30;58.20
3348;DHT22;1687;49.540;8.574;2023-07-22T01:59:46;20.30;58.30
3348;DHT22;1687;49.540;8.574;2023-07-22T02:02:13;20.30;58.30
3348;DHT22;1687;49.540;8.574;2023-07-22T02:04:39;20.30;58.30
3348;DHT22;1687;49.540;8.574;2023-07-22T02:07:04;20.30;58.40
3348;DHT22;1687;49.540;8.574;2023-07-22T02:09:32;20.30;58.30
3348;DHT22;1687;49.540;8.574;2023-07-22T02:11:58;20.20;58.30
3348;DHT22;1687;49.540;8.574;2023-07-22T02:14:24;20.20;58.30
3348;DHT22;1687;49.540;8.574;2023-07-22T02:16:50;20.20;58.30
3348;DHT22;1687;49.540;8.574;2023-07-22T02:19:15;20.20;58.30
3348;DHT22;1687;49.540;8.574;2023-07-22T02:21:41;20.20;58.40
3348;DHT22;1687;49.540;8.574;2023-07-22T02:24:08;20.20;58.40
3348;DHT22;1687;49.540;8.574;2023-07-22T02:26:34;20.20;58.50
3348;DHT22;1687;49.540;8.574;2023-07-22T02:29:00;20.20;58.30
3348;DHT22;1687;49.540;8.574;2023-07-22T02:31:25;20.10;58.40
3348;DHT22;1687;49.540;8.574;2023-07-22T02:33:51;20.00;58.40
3348;DHT22;1687;49.540;8.574;2023-07-22T02:36:17;19.90;58.40
3348;DHT22;1687;49.540;8.574;2023-07-22T02:38:43;19.80;58.40
3348;DHT22;1687;49.540;8.574;2023-07-22T02:41:08;19.70;58.60
3348;DHT22;1687;49.540;8.574;2023-07-22T02:43:34;19.70;58.90
3348;DHT22;1687;49.540;8.574;2023-07-22T02:46:05;19.70;59.10
3348;DHT22;1687;49.540;8.574;2023-07-22T02:48:33;19.80;59.30
3348;DHT22;1687;49.540;8.574;2023-07-22T02:51:09;19.70;59.10
3348;DHT22;1687;49.540;8.574;2023-07-22T02:53:36;19.60;59.40
3348;DHT22;1687;49.540;8.574;2023-07-22T02:56:02;19.60;59.70
3348;DHT22;1687;49.540;8.574;2023-07-22T02:58:29;19.50;59.90
3348;DHT22;1687;49.540;8.574;2023-07-22T03:00:54;19.50;60.10
3348;DHT22;1687;49.540;8.574;2023-07-22T03:03:23;19.40;60.40
3348;DHT22;1687;49.540;8.574;2023-07-22T03:05:48;19.40;60.50
3348;DHT22;1687;49.540;8.574;2023-07-22T03:08:14;19.40;60.70
3348;DHT22;1687;49.540;8.574;2023-07-22T03:10:40;19.30;61.00
3348;DHT22;1687;49.540;8.574;2023-07-22T03:13:06;19.30;61.20
3348;DHT22;1687;49.540;8.574;2023-07-22T03:15:33;19.30;61.60
3348;DHT22;1687;49.540;8.574;2023-07-22T03:17:58;19.30;61.80
3348;DHT22;1687;49.540;8.574;2023-07-22T03:20:25;19.30;62.00
3348;DHT22;1687;49.540;8.574;2023-07-22T03:22:51;19.20;62.00
3348;DHT22;1687;49.540;8.574;2023-07-22T03:25:19;19.20;62.20
3348;DHT22;1687;49.540;8.574;2023-07-22T03:27:45;19.20;62.40
3348;DHT22;1687;49.540;8.574;2023-07-22T03:30:14;19.10;62.30
3348;DHT22;1687;49.540;8.574;2023-07-22T03:32:45;19.10;62.50
3348;DHT22;1687;49.540;8.574;2023-07-22T03:35:13;19.10;63.00
3348;DHT22;1687;49.540;8.574;2023-07-22T03:37:39;19.10;63.00
3348;DHT22;1687;49.540;8.574;2023-07-22T03:40:06;19.10;64.00
3348;DHT22;1687;49.540;8.574;2023-07-22T03:42:53;19.20;63.30
3348;DHT22;1687;49.540;8.574;2023-07-22T03:45:20;19.20;63.50
3348;DHT22;1687;49.540;8.574;2023-07-22T03:47:51;19.20;63.60
3348;DHT22;1687;49.540;8.574;2023-07-22T03:50:18;19.20;63.50
3348;DHT22;1687;49.540;8.574;2023-07-22T03:52:44;19.10;63.60
3348;DHT22;1687;49.540;8.574;2023-07-22T03:55:09;19.10;63.90
3348;DHT22;1687;49.540;8.574;2023-07-22T03:57:36;19.00;63.70
3348;DHT22;1687;49.540;8.574;2023-07-22T04:00:02;19.00;64.00
3348;DHT22;1687;49.540;8.574;2023-07-22T04:02:29;19.00;64.20
3348;DHT22;1687;49.540;8.574;2023-07-22T04:04:55;19.00;64.20
3348;DHT22;1687;49.540;8.574;2023-07-22T04:07:21;18.90;64.20
3348;DHT22;1687;49.540;8.574;2023-07-22T04:09:48;18.90;64.40
3348;DHT22;1687;49.540;8.574;2023-07-22T04:12:14;18.80;64.50
3348;DHT22;1687;49.540;8.574;2023-07-22T04:14:40;18.80;64.60
3348;DHT22;1687;49.540;8.574;2023-07-22T04:17:06;18.80;64.90
3348;DHT22;1687;49.540;8.574;2023-07-22T04:19:32;18.70;64.90
3348;DHT22;1687;49.540;8.574;2023-07-22T04:21:57;18.70;65.00
3348;DHT22;1687;49.540;8.574;2023-07-22T04:24:23;18.70;65.50
3348;DHT22;1687;49.540;8.574;2023-07-22T04:26:50;18.80;65.70
3348;DHT22;1687;49.540;8.574;2023-07-22T04:29:16;18.90;65.60
3348;DHT22;1687;49.540;8.574;2023-07-22T04:31:42;18.80;65.50
3348;DHT22;1687;49.540;8.574;2023-07-22T04:34:08;18.80;66.00
3348;DHT22;1687;49.540;8.574;2023-07-22T04:36:34;18.80;65.80
3348;DHT22;1687;49.540;8.574;2023-07-22T04:39:02;18.90;66.30
3348;DHT22;1687;49.540;8.574;2023-07-22T04:41:30;19.00;66.60
3348;DHT22;1687;49.540;8.574;2023-07-22T04:43:57;19.10;66.60
3348;DHT22;1687;49.540;8.574;2023-07-22T04:46:24;19.20;66.70
3348;DHT22;1687;49.540;8.574;2023-07-22T04:48:54;19.30;66.70
3348;DHT22;1687;49.540;8.574;2023-07-22T04:51:20;19.30;66.40
3348;DHT22;1687;49.540;8.574;2023-07-22T04:53:46;19.20;66.30
3348;DHT22;1687;49.540;8.574;2023-07-22T04:56:12;19.10;66.20
3348;DHT22;1687;49.540;8.574;2023-07-22T04:58:37;19.20;66.90
3348;DHT22;1687;49.540;8.574;2023-07-22T05:01:04;19.20;66.60
3348;DHT22;1687;49.540;8.574;2023-07-22T05:03:29;19.20;66.90
3348;DHT22;1687;49.540;8.574;2023-07-22T05:05:55;19.30;67.00
3348;DHT22;1687;49.540;8.574;2023-07-22T05:08:23;19.30;66.80
3348;DHT22;1687;49.540;8.574;2023-07-22T05:10:49;19.20;67.00
3348;DHT22;1687;49.540;8.574;2023-07-22T05:13:14;19.40;67.40
3348;DHT22;1687;49.540;8.574;2023-07-22T05:15:40;19.40;67.20
3348;DHT22;1687;49.540;8.574;2023-07-22T05:18:06;19.40;67.30
3348;DHT22;1687;49.540;8.574;2023-07-22T05:20:31;19.50;67.50
3348;DHT22;1687;49.540;8.574;2023-07-22T05:22:58;19.50;67.10
3348;DHT22;1687;49.540;8.574;2023-07-22T05:25:24;19.40;66.90
3348;DHT22;1687;49.540;8.574;2023-07-22T05:27:50;19.50;67.40
3348;DHT22;1687;49.540;8.574;2023-07-22T05:30:15;19.50;67.40
3348;DHT22;1687;49.540;8.574;2023-07-22T05:32:41;19.60;67.70
3348;DHT22;1687;49.540;8.574;2023-07-22T05:35:07;19.60;67.50
3348;DHT22;1687;49.540;8.574;2023-07-22T05:37:34;19.60;67.40
3348;DHT22;1687;49.540;8.574;2023-07-22T05:39:59;19.60;67.40
3348;DHT22;1687;49.540;8.574;2023-07-22T05:42:26;19.50;67.60
3348;DHT22;1687;49.540;8.574;2023-07-22T05:44:54;19.60;67.80
3348;DHT22;1687;49.540;8.574;2023-07-22T05:47:21;19.70;67.80
3348;DHT22;1687;49.540;8.574;2023-07-22T05:49:47;19.80;68.00
3348;DHT22;1687;49.540;8.574;2023-07-22T05:52:13;19.80;67.90
3348;DHT22;1687;49.540;8.574;2023-07-22T05:54:39;19.80;67.50
3348;DHT22;1687;49.540;8.574;2023-07-22T05:57:05;19.80;67.70
3348;DHT22;1687;49.540;8.574;2023-07-22T05:59:31;19.90;68.00
3348;DHT22;1687;49.540;8.574;2023-07-22T06:01:57;20.00;68.30
3348;DHT22;1687;49.540;8.574;2023-07-22T06:04:22;20.10;68.30
3348;DHT22;1687;49.540;8.574;2023-07-22T06:06:48;20.10;68.00
3348;DHT22;1687;49.540;8.574;2023-07-22T06:09:14;20.10;68.50
3348;DHT22;1687;49.540;8.574;2023-07-22T06:11:40;20.20;68.70
3348;DHT22;1687;49.540;8.574;2023-07-22T06:14:05;20.30;68.60
3348;DHT22;1687;49.540;8.574;2023-07-22T06:16:32;20.30;68.20
3348;DHT22;1687;49.540;8.574;2023-07-22T06:18:57;20.20;68.30
3348;DHT22;1687;49.540;8.574;2023-07-22T06:21:23;20.20;68.50
3348;DHT22;1687;49.540;8.574;2023-07-22T06:23:50;20.40;68.60
3348;DHT22;1687;49.540;8.574;2023-07-22T06:26:15;20.50;68.60
3348;DHT22;1687;49.540;8.574;2023-07-22T06:28:41;20.60;68.50
3348;DHT22;1687;49.540;8.574;2023-07-22T06:31:07;20.80;68.50
3348;DHT22;1687;49.540;8.574;2023-07-22T06:33:33;20.80;68.20
3348;DHT22;1687;49.540;8.574;2023-07-22T06:35:59;20.80;68.00
3348;DHT22;1687;49.540;8.574;2023-07-22T06:38:24;20.70;67.60
3348;DHT22;1687;49.540;8.574;2023-07-22T06:40:53;20.60;67.70
3348;DHT22;1687;49.540;8.574;2023-07-22T06:43:19;20.60;67.70
3348;DHT22;1687;49.540;8.574;2023-07-22T06:45:44;20.60;67.70
3348;DHT22;1687;49.540;8.574;2023-07-22T06:48:10;20.60;67.50
3348;DHT22;1687;49.540;8.574;2023-07-22T06:50:36;20.60;67.40
3348;DHT22;1687;49.540;8.574;2023-07-22T06:53:01;20.80;67.70
3348;DHT22;1687;49.540;8.574;2023-07-22T06:55:27;20.90;67.60
3348;DHT22;1687;49.540;8.574;2023-07-22T06:57:55;21.00;67.70
3348;DHT22;1687;49.540;8.574;2023-07-22T07:00:21;21.10;67.20
3348;DHT22;1687;49.540;8.574;2023-07-22T07:02:47;21.10;67.20
3348;DHT22;1687;49.540;8.574;2023-07-22T07:05:13;21.10;67.10
3348;DHT22;1687;49.540;8.574;2023-07-22T07:07:38;21.00;66.70
3348;DHT22;1687;49.540;8.574;2023-07-22T07:10:06;21.10;67.30
3348;DHT22;1687;49.540;8.574;2023-07-22T07:12:32;21.20;67.00
3348;DHT22;1687;49.540;8.574;2023-07-22T07:14:58;21.30;66.70
3348;DHT22;1687;49.540;8.574;2023-07-22T07:17:23;21.40;66.80
3348;DHT22;1687;49.540;8.574;2023-07-22T07:19:49;21.50;66.80
3348;DHT22;1687;49.540;8.574;2023-07-22T07:22:15;21.70;66.90
3348;DHT22;1687;49.540;8.574;2023-07-22T07:24:41;21.70;66.60
3348;DHT22;1687;49.540;8.574;2023-07-22T07:27:07;21.70;65.90
3348;DHT22;1687;49.540;8.574;2023-07-22T07:29:33;21.60;66.00
3348;DHT22;1687;49.540;8.574;2023-07-22T07:31:58;21.60;65.70
3348;DHT22;1687;49.540;8.574;2023-07-22T07:34:24;21.60;65.80
3348;DHT22;1687;49.540;8.574;2023-07-22T07:36:50;21.60;65.70
3348;DHT22;1687;49.540;8.574;2023-07-22T07:39:15;21.40;65.40
3348;DHT22;1687;49.540;8.574;2023-07-22T07:41:41;21.40;65.70
3348;DHT22;1687;49.540;8.574;2023-07-22T07:44:07;21.40;65.50
3348;DHT22;1687;49.540;8.574;2023-07-22T07:46:32;21.40;65.40
3348;DHT22;1687;49.540;8.574;2023-07-22T07:48:59;21.30;65.50
3348;DHT22;1687;49.540;8.574;2023-07-22T07:51:30;21.40;65.30
3348;DHT22;1687;49.540;8.574;2023-07-22T07:53:58;21.30;65.30
3348;DHT22;1687;49.540;8.574;2023-07-22T07:56:24;21.50;65.70
3348;DHT22;1687;49.540;8.574;2023-07-22T07:58:52;21.70;65.80
3348;DHT22;1687;49.540;8.574;2023-07-22T08:01:18;21.90;65.80
3348;DHT22;1687;49.540;8.574;2023-07-22T08:03:44;22.00;65.10
3348;DHT22;1687;49.540;8.574;2023-07-22T08:06:11;22.00;65.00
3348;DHT22;1687;49.540;8.574;2023-07-22T08:08:37;22.10;65.20
3348;DHT22;1687;49.540;8.574;2023-07-22T08:11:11;22.10;64.70
3348;DHT22;1687;49.540;8.574;2023-07-22T08:13:41;22.10;64.50
3348;DHT22;1687;49.540;8.574;2023-07-22T08:16:10;22.20;64.60
3348;DHT22;1687;49.540;8.574;2023-07-22T08:18:37;22.20;64.40
3348;DHT22;1687;49.540;8.574;2023-07-22T08:21:04;22.30;64.70
3348;DHT22;1687;49.540;8.574;2023-07-22T08:23:32;22.50;64.60
3348;DHT22;1687;49.540;8.574;2023-07-22T08:25:58;22.60;64.60
3348;DHT22;1687;49.540;8.574;2023-07-22T08:28:23;22.60;64.00
3348;DHT22;1687;49.540;8.574;2023-07-22T08:30:49;22.60;64.00
3348;DHT22;1687;49.540;8.574;2023-07-22T08:33:16;22.60;63.80
3348;DHT22;1687;49.540;8.574;2023-07-22T08:35:42;22.80;64.00
3348;DHT22;1687;49.540;8.574;2023-07-22T08:38:08;23.00;63.70
3348;DHT22;1687;49.540;8.574;2023-07-22T08:40:38;23.00;63.10
3348;DHT22;1687;49.540;8.574;2023-07-22T08:43:07;23.10;63.50
3348;DHT22;1687;49.540;8.574;2023-07-22T08:45:35;23.20;63.20
3348;DHT22;1687;49.540;8.574;2023-07-22T08:48:04;23.20;62.70
3348;DHT22;1687;49.540;8.574;2023-07-22T08:53:19;23.20;62.50
3348;DHT22;1687;49.540;8.574;2023-07-22T08:55:46;23.30;62.40
3348;DHT22;1687;49.540;8.574;2023-07-22T08:58:13;23.40;62.40
3348;DHT22;1687;49.540;8.574;2023-07-22T09:00:40;23.30;61.90
3348;DHT22;1687;49.540;8.574;2023-07-22T09:03:06;23.30;62.00
3348;DHT22;1687;49.540;8.574;2023-07-22T09:05:33;23.40;62.30
3348;DHT22;1687;49.540;8.574;2023-07-22T09:08:02;23.60;62.10
3348;DHT22;1687;49.540;8.574;2023-07-22T09:10:29;23.70;61.90
3348;DHT22;1687;49.540;8.574;2023-07-22T09:12:56;23.80;61.80
3348;DHT22;1687;49.540;8.574;2023-07-22T09:15:22;23.90;61.70
3348;DHT22;1687;49.540;8.574;2023-07-22T09:17:51;24.00;61.30
3348;DHT22;1687;49.540;8.574;2023-07-22T09:20:16;24.10;61.50
3348;DHT22;1687;49.540;8.574;2023-07-22T09:22:50;24.20;61.30
3348;DHT22;1687;49.540;8.574;2023-07-22T09:25:21;24.40;61.30
3348;DHT22;1687;49.540;8.574;2023-07-22T09:27:52;24.60;61.20
3348;DHT22;1687;49.540;8.574;2023-07-22T09:30:34;24.70;60.80
3348;DHT22;1687;49.540;8.574;2023-07-22T09:33:06;24.80;60.50
3348;DHT22;1687;49.540;8.574;2023-07-22T09:38:11;24.80;59.90
3348;DHT22;1687;49.540;8.574;2023-07-22T09:40:40;25.00;59.70
3348;DHT22;1687;49.540;8.574;2023-07-22T09:43:09;25.00;59.70
3348;DHT22;1687;49.540;8.574;2023-07-22T09:45:36;24.90;59.20
3348;DHT22;1687;49.540;8.574;2023-07-22T09:48:03;25.00;59.30
3348;DHT22;1687;49.540;8.574;2023-07-22T09:50:29;25.20;59.20
3348;DHT22;1687;49.540;8.574;2023-07-22T09:52:57;25.40;59.10
3348;DHT22;1687;49.540;8.574;2023-07-22T09:55:25;25.70;59.10
3348;DHT22;1687;49.540;8.574;2023-07-22T10:00:30;26.20;58.50
3348;DHT22;1687;49.540;8.574;2023-07-22T10:02:59;26.30;58.30
3348;DHT22;1687;49.540;8.574;2023-07-22T10:05:26;26.30;57.60
3348;DHT22;1687;49.540;8.574;2023-07-22T10:07:55;26.30;57.50
3348;DHT22;1687;49.540;8.574;2023-07-22T10:10:30;26.30;57.30
3348;DHT22;1687;49.540;8.574;2023-07-22T10:12:57;26.30;56.90
3348;DHT22;1687;49.540;8.574;2023-07-22T10:15:27;26.10;56.40
3348;DHT22;1687;49.540;8.574;2023-07-22T10:17:55;25.80;55.90
3348;DHT22;1687;49.540;8.574;2023-07-22T10:20:22;25.50;55.90
3348;DHT22;1687;49.540;8.574;2023-07-22T10:22:49;25.40;55.70
3348;DHT22;1687;49.540;8.574;2023-07-22T10:25:17;25.30;55.70
3348;DHT22;1687;49.540;8.574;2023-07-22T10:27:45;25.60;55.90
3348;DHT22;1687;49.540;8.574;2023-07-22T10:30:13;25.80;55.50
3348;DHT22;1687;49.540;8.574;2023-07-22T10:35:40;25.90;55.20
3348;DHT22;1687;49.540;8.574;2023-07-22T10:38:16;25.80;54.70
3348;DHT22;1687;49.540;8.574;2023-07-22T10:40:50;25.90;54.80
3348;DHT22;1687;49.540;8.574;2023-07-22T10:43:31;26.00;54.60
3348;DHT22;1687;49.540;8.574;2023-07-22T10:46:10;25.90;54.30
3348;DHT22;1687;49.540;8.574;2023-07-22T10:48:41;25.80;54.20
3348;DHT22;1687;49.540;8.574;2023-07-22T10:51:09;25.80;54.00
3348;DHT22;1687;49.540;8.574;2023-07-22T10:53:47;25.80;53.80
3348;DHT22;1687;49.540;8.574;2023-07-22T10:56:19;25.80;53.80
3348;DHT22;1687;49.540;8.574;2023-07-22T11:01:32;25.70;53.50
3348;DHT22;1687;49.540;8.574;2023-07-22T11:06:59;26.10;53.60
3348;DHT22;1687;49.540;8.574;2023-07-22T11:11:58;26.30;53.00
3348;DHT22;1687;49.540;8.574;2023-07-22T11:14:27;26.20;52.70
3348;DHT22;1687;49.540;8.574;2023-07-22T11:16:58;26.20;52.70
3348;DHT22;1687;49.540;8.574;2023-07-22T11:19:25;26.40;52.70
3348;DHT22;1687;49.540;8.574;2023-07-22T11:21:52;26.70;52.70
3348;DHT22;1687;49.540;8.574;2023-07-22T11:24:20;26.80;52.00
3348;DHT22;1687;49.540;8.574;2023-07-22T11:26:47;26.80;51.90
3348;DHT22;1687;49.540;8.574;2023-07-22T11:29:14;26.90;51.80
3348;DHT22;1687;49.540;8.574;2023-07-22T11:31:42;26.90;51.70
3348;DHT22;1687;49.540;8.574;2023-07-22T11:34:12;27.00;51.60
3348;DHT22;1687;49.540;8.574;2023-07-22T11:36:38;27.30;51.60
3348;DHT22;1687;49.540;8.574;2023-07-22T11:39:09;27.40;51.40
3348;DHT22;1687;49.540;8.574;2023-07-22T11:41:36;27.60;51.30
3348;DHT22;1687;49.540;8.574;2023-07-22T11:44:03;27.80;51.30
3348;DHT22;1687;49.540;8.574;2023-07-22T11:47:17;27.70;50.50
3348;DHT22;1687;49.540;8.574;2023-07-22T11:49:33;27.50;50.40
3348;DHT22;1687;49.540;8.574;2023-07-22T11:52:07;27.60;50.70
3348;DHT22;1687;49.540;8.574;2023-07-22T11:54:44;27.70;50.50
3348;DHT22;1687;49.540;8.574;2023-07-22T11:57:23;27.70;50.30
3348;DHT22;1687;49.540;8.574;2023-07-22T11:59:50;27.50;50.00
3348;DHT22;1687;49.540;8.574;2023-07-22T12:02:27;27.40;50.00
3348;DHT22;1687;49.540;8.574;2023-07-22T12:05:02;27.20;49.60
3348;DHT22;1687;49.540;8.574;2023-07-22T12:07:35;26.80;49.70
3348;DHT22;1687;49.540;8.574;2023-07-22T12:10:03;26.70;49.60
3348;DHT22;1687;49.540;8.574;2023-07-22T12:15:12;26.70;49.80
3348;DHT22;1687;49.540;8.574;2023-07-22T12:17:47;26.90;49.70
3348;DHT22;1687;49.540;8.574;2023-07-22T12:20:16;27.00;49.50
3348;DHT22;1687;49.540;8.574;2023-07-22T12:22:42;27.20;49.60
3348;DHT22;1687;49.540;8.574;2023-07-22T12:25:11;27.40;49.40
3348;DHT22;1687;49.540;8.574;2023-07-22T12:27:37;27.60;49.10
3348;DHT22;1687;49.540;8.574;2023-07-22T12:30:04;27.80;48.90
3348;DHT22;1687;49.540;8.574;2023-07-22T12:32:31;27.80;48.40
3348;DHT22;1687;49.540;8.574;2023-07-22T12:34:56;27.60;48.20
3348;DHT22;1687;49.540;8.574;2023-07-22T12:37:22;27.60;48.10
3348;DHT22;1687;49.540;8.574;2023-07-22T12:39:48;27.50;47.80
3348;DHT22;1687;49.540;8.574;2023-07-22T12:42:13;27.50;47.80
3348;DHT22;1687;49.540;8.574;2023-07-22T12:44:39;27.60;47.70
3348;DHT22;1687;49.540;8.574;2023-07-22T12:47:05;27.60;47.40
3348;DHT22;1687;49.540;8.574;2023-07-22T12:49:31;27.60;47.30
3348;DHT22;1687;49.540;8.574;2023-07-22T12:51:56;27.80;47.20
3348;DHT22;1687;49.540;8.574;2023-07-22T12:54:29;28.00;47.00
3348;DHT22;1687;49.540;8.574;2023-07-22T12:56:56;28.10;46.90
3348;DHT22;1687;49.540;8.574;2023-07-22T12:59:22;28.20;46.70
3348;DHT22;1687;49.540;8.574;2023-07-22T13:01:47;28.30;46.30
3348;DHT22;1687;49.540;8.574;2023-07-22T13:04:13;28.20;46.00
3348;DHT22;1687;49.540;8.574;2023-07-22T13:06:39;28.30;45.90
3348;DHT22;1687;49.540;8.574;2023-07-22T13:09:05;28.20;45.60
3348;DHT22;1687;49.540;8.574;2023-07-22T13:11:30;28.20;45.60
3348;DHT22;1687;49.540;8.574;2023-07-22T13:13:56;28.20;45.60
3348;DHT22;1687;49.540;8.574;2023-07-22T13:16:21;28.40;45.70
3348;DHT22;1687;49.540;8.574;2023-07-22T13:18:47;28.30;45.00
3348;DHT22;1687;49.540;8.574;2023-07-22T13:21:13;28.20;45.00
3348;DHT22;1687;49.540;8.574;2023-07-22T13:23:38;28.20;45.10
3348;DHT22;1687;49.540;8.574;2023-07-22T13:26:04;28.40;44.80
3348;DHT22;1687;49.540;8.574;2023-07-22T13:28:30;28.40;44.30
3348;DHT22;1687;49.540;8.574;2023-07-22T13:30:55;28.50;44.40
3348;DHT22;1687;49.540;8.574;2023-07-22T13:33:21;28.80;44.40
3348;DHT22;1687;49.540;8.574;2023-07-22T13:35:47;29.10;44.30
3348;DHT22;1687;49.540;8.574;2023-07-22T13:38:12;29.20;44.50
3348;DHT22;1687;49.540;8.574;2023-07-22T13:40:38;29.20;43.70
3348;DHT22;1687;49.540;8.574;2023-07-22T13:43:04;29.40;43.40
3348;DHT22;1687;49.540;8.574;2023-07-22T13:45:30;29.70;43.30
3348;DHT22;1687;49.540;8.574;2023-07-22T13:47:55;29.70;42.80
3348;DHT22;1687;49.540;8.574;2023-07-22T13:50:21;29.60;42.60
3348;DHT22;1687;49.540;8.574;2023-07-22T13:52:48;29.70;42.60
3348;DHT22;1687;49.540;8.574;2023-07-22T13:55:14;30.40;42.80
3348;DHT22;1687;49.540;8.574;2023-07-22T13:57:40;31.10;42.10
3348;DHT22;1687;49.540;8.574;2023-07-22T14:00:06;31.70;41.70
3348;DHT22;1687;49.540;8.574;2023-07-22T14:02:36;32.30;41.60
3348;DHT22;1687;49.540;8.574;2023-07-22T14:05:03;32.80;41.10
3348;DHT22;1687;49.540;8.574;2023-07-22T14:07:29;32.70;40.20
3348;DHT22;1687;49.540;8.574;2023-07-22T14:09:55;31.60;39.70
3348;DHT22;1687;49.540;8.574;2023-07-22T14:12:20;30.60;40.00
3348;DHT22;1687;49.540;8.574;2023-07-22T14:14:46;30.40;40.40
3348;DHT22;1687;49.540;8.574;2023-07-22T14:17:12;30.80;40.90
3348;DHT22;1687;49.540;8.574;2023-07-22T14:19:37;31.40;40.70
3348;DHT22;1687;49.540;8.574;2023-07-22T14:22:03;31.60;40.00
3348;DHT22;1687;49.540;8.574;2023-07-22T14:24:29;31.00;39.60
3348;DHT22;1687;49.540;8.574;2023-07-22T14:26:55;30.60;40.00
3348;DHT22;1687;49.540;8.574;2023-07-22T14:29:21;30.40;39.80
3348;DHT22;1687;49.540;8.574;2023-07-22T14:31:47;31.00;40.30
3348;DHT22;1687;49.540;8.574;2023-07-22T14:34:13;31.60;40.00
3348;DHT22;1687;49.540;8.574;2023-07-22T14:36:38;32.00;39.50
3348;DHT22;1687;49.540;8.574;2023-07-22T14:39:04;31.70;39.20
3348;DHT22;1687;49.540;8.574;2023-07-22T14:41:30;31.10;39.10
3348;DHT22;1687;49.540;8.574;2023-07-22T14:43:56;30.30;39.20
3348;DHT22;1687;49.540;8.574;2023-07-22T14:46:22;29.70;39.50
3348;DHT22;1687;49.540;8.574;2023-07-22T14:48:48;29.30;39.70
3348;DHT22;1687;49.540;8.574;2023-07-22T14:51:14;29.60;40.50
3348;DHT22;1687;49.540;8.574;2023-07-22T14:53:39;31.30;40.90
3348;DHT22;1687;49.540;8.574;2023-07-22T14:56:05;33.40;40.60
3348;DHT22;1687;49.540;8.574;2023-07-22T14:58:33;35.10;40.20
3348;DHT22;1687;49.540;8.574;2023-07-22T15:00:59;36.00;38.60
3348;DHT22;1687;49.540;8.574;2023-07-22T15:03:25;36.40;37.90
3348;DHT22;1687;49.540;8.574;2023-07-22T15:05:51;35.90;37.10
3348;DHT22;1687;49.540;8.574;2023-07-22T15:08:16;35.10;36.90
3348;DHT22;1687;49.540;8.574;2023-07-22T15:10:42;35.70;37.60
3348;DHT22;1687;49.540;8.574;2023-07-22T15:13:08;36.60;37.20
3348;DHT22;1687;49.540;8.574;2023-07-22T15:15:33;37.40;36.70
3348;DHT22;1687;49.540;8.574;2023-07-22T15:17:59;37.80;35.70
3348;DHT22;1687;49.540;8.574;2023-07-22T15:20:25;37.60;35.10
3348;DHT22;1687;49.540;8.574;2023-07-22T15:22:50;37.20;35.10
3348;DHT22;1687;49.540;8.574;2023-07-22T15:25:16;37.60;35.20
3348;DHT22;1687;49.540;8.574;2023-07-22T15:27:42;37.40;34.20
3348;DHT22;1687;49.540;8.574;2023-07-22T15:30:09;37.20;34.20
3348;DHT22;1687;49.540;8.574;2023-07-22T15:32:35;37.30;34.10
3348;DHT22;1687;49.540;8.574;2023-07-22T15:35:01;36.80;33.40
3348;DHT22;1687;49.540;8.574;2023-07-22T15:37:27;36.70;34.10
3348;DHT22;1687;49.540;8.574;2023-07-22T15:39:52;37.20;34.30
3348;DHT22;1687;49.540;8.574;2023-07-22T15:42:18;36.60;33.70
3348;DHT22;1687;49.540;8.574;2023-07-22T15:44:44;36.40;33.80
3348;DHT22;1687;49.540;8.574;2023-07-22T15:47:09;36.70;33.80
3348;DHT22;1687;49.540;8.574;2023-07-22T15:49:35;37.00;34.10
3348;DHT22;1687;49.540;8.574;2023-07-22T15:52:01;37.20;33.50
3348;DHT22;1687;49.540;8.574;2023-07-22T15:54:27;37.40;33.40
3348;DHT22;1687;49.540;8.574;2023-07-22T15:56:53;37.60;33.30
3348;DHT22;1687;49.540;8.574;2023-07-22T15:59:18;36.90;32.60
3348;DHT22;1687;49.540;8.574;2023-07-22T16:01:44;35.80;32.70
3348;DHT22;1687;49.540;8.574;2023-07-22T16:04:10;34.90;33.00
3348;DHT22;1687;49.540;8.574;2023-07-22T16:06:36;34.90;33.30
3348;DHT22;1687;49.540;8.574;2023-07-22T16:09:02;34.40;32.90
3348;DHT22;1687;49.540;8.574;2023-07-22T16:11:27;33.60;33.30
3348;DHT22;1687;49.540;8.574;2023-07-22T16:13:53;32.70;33.30
3348;DHT22;1687;49.540;8.574;2023-07-22T16:16:20;32.00;34.00
3348;DHT22;1687;49.540;8.574;2023-07-22T16:18:46;31.40;34.20
3348;DHT22;1687;49.540;8.574;2023-07-22T16:21:12;31.20;34.80
3348;DHT22;1687;49.540;8.574;2023-07-22T16:23:38;30.90;35.00